Rembert, South Carolina
Current Conditions -  °F | °C
As of 7:08 AM on Sunday 23 Nov 2014 (Local Time) from KSSC Reporting Station
Moderate Rain Moderate Rain  
Wind Chill: 50°   Ceiling: Unl
Heat Index: 50°   Visibility: 5mi
Dew Point: 50°   Wind: 6mph
Humidity: 100%   Direction: 40°NE
Pressure: 30.19"   Gusts: NA
Location:  34.1°N, 80.53°W
Report Text: KSSC 231208Z AUTO 04005KT 5SM RA BR FEW060 10/10 A3019 RMK AO2
Loading
Personal Weather Stations






























Interactive Weather Map New forecast layout! Learn more

10-Day Weather Forecast

Advertisements
Track Severe Weather on mobile